sensor_id;sensor_type;location;lat;lon;timestamp;pressure;altitude;pressure_sealevel;temperature;humidity
8286;BME280;4181;43.416;24.598;2023-03-21T00:00:01;99935.84;;;12.99;100.00
8286;BME280;4181;43.416;24.598;2023-03-21T00:02:26;99918.06;;;12.97;100.00
8286;BME280;4181;43.416;24.598;2023-03-21T00:04:52;99892.56;;;12.86;100.00
8286;BME280;4181;43.416;24.598;2023-03-21T00:07:17;99910.94;;;13.01;100.00
8286;BME280;4181;43.416;24.598;2023-03-21T00:09:43;99916.16;;;13.02;100.00
8286;BME280;4181;43.416;24.598;2023-03-21T00:12:08;99913.44;;;13.07;100.00
8286;BME280;4181;43.416;24.598;2023-03-21T00:14:35;99915.38;;;13.17;100.00
8286;BME280;4181;43.416;24.598;2023-03-21T00:17:03;99887.16;;;13.11;100.00
8286;BME280;4181;43.416;24.598;2023-03-21T00:19:28;99899.72;;;13.17;100.00
8286;BME280;4181;43.416;24.598;2023-03-21T00:21:54;99891.78;;;13.11;100.00
8286;BME280;4181;43.416;24.598;2023-03-21T00:24:21;99898.94;;;13.12;100.00
8286;BME280;4181;43.416;24.598;2023-03-21T00:26:47;99906.59;;;13.10;100.00
8286;BME280;4181;43.416;24.598;2023-03-21T00:29:13;99900.28;;;13.09;100.00
8286;BME280;4181;43.416;24.598;2023-03-21T00:31:38;99897.81;;;13.03;100.00
8286;BME280;4181;43.416;24.598;2023-03-21T00:34:04;99887.41;;;13.15;100.00
8286;BME280;4181;43.416;24.598;2023-03-21T00:36:30;99895.38;;;13.16;100.00
8286;BME280;4181;43.416;24.598;2023-03-21T00:38:56;99889.88;;;13.06;100.00
8286;BME280;4181;43.416;24.598;2023-03-21T00:41:21;99910.63;;;12.87;100.00
8286;BME280;4181;43.416;24.598;2023-03-21T00:43:47;99908.72;;;12.93;100.00
8286;BME280;4181;43.416;24.598;2023-03-21T00:46:12;99911.19;;;12.89;100.00
8286;BME280;4181;43.416;24.598;2023-03-21T00:48:38;99893.69;;;12.85;100.00
8286;BME280;4181;43.416;24.598;2023-03-21T00:51:13;99898.94;;;13.02;100.00
8286;BME280;4181;43.416;24.598;2023-03-21T00:53:42;99885.44;;;13.00;100.00
8286;BME280;4181;43.416;24.598;2023-03-21T00:56:08;99867.66;;;12.98;100.00
8286;BME280;4181;43.416;24.598;2023-03-21T00:58:34;99881.66;;;13.11;100.00
8286;BME280;4181;43.416;24.598;2023-03-21T01:01:00;99864.13;;;13.07;100.00
8286;BME280;4181;43.416;24.598;2023-03-21T01:03:26;99862.50;;;13.16;100.00
8286;BME280;4181;43.416;24.598;2023-03-21T01:05:53;99888.22;;;13.25;100.00
8286;BME280;4181;43.416;24.598;2023-03-21T01:08:37;99888.22;;;13.10;100.00
8286;BME280;4181;43.416;24.598;2023-03-21T01:11:07;99876.38;;;12.64;100.00
8286;BME280;4181;43.416;24.598;2023-03-21T01:13:33;99883.19;;;12.57;100.00
8286;BME280;4181;43.416;24.598;2023-03-21T01:16:01;99878.28;;;12.59;100.00
8286;BME280;4181;43.416;24.598;2023-03-21T01:18:30;99882.41;;;12.61;100.00
8286;BME280;4181;43.416;24.598;2023-03-21T01:20:57;99888.19;;;12.75;100.00
8286;BME280;4181;43.416;24.598;2023-03-21T01:23:24;99877.22;;;12.75;100.00
8286;BME280;4181;43.416;24.598;2023-03-21T01:25:52;99891.19;;;12.78;100.00
8286;BME280;4181;43.416;24.598;2023-03-21T01:28:18;99879.97;;;12.70;100.00
8286;BME280;4181;43.416;24.598;2023-03-21T01:30:45;99879.13;;;12.69;100.00
8286;BME280;4181;43.416;24.598;2023-03-21T01:33:12;99864.31;;;12.60;100.00
8286;BME280;4181;43.416;24.598;2023-03-21T01:35:37;99878.31;;;12.79;100.00
8286;BME280;4181;43.416;24.598;2023-03-21T01:38:02;99883.81;;;12.84;100.00
8286;BME280;4181;43.416;24.598;2023-03-21T01:40:29;99857.53;;;12.78;100.00
8286;BME280;4181;43.416;24.598;2023-03-21T01:42:54;99848.22;;;12.84;100.00
8286;BME280;4181;43.416;24.598;2023-03-21T01:48:24;99853.16;;;13.12;100.00
8286;BME280;4181;43.416;24.598;2023-03-21T01:50:51;99824.97;;;13.02;100.00
8286;BME280;4181;43.416;24.598;2023-03-21T01:53:19;99868.53;;;13.28;100.00
8286;BME280;4181;43.416;24.598;2023-03-21T01:55:46;99863.56;;;13.15;100.00
8286;BME280;4181;43.416;24.598;2023-03-21T01:58:15;99868.81;;;13.17;100.00
8286;BME280;4181;43.416;24.598;2023-03-21T02:00:44;99893.44;;;13.12;100.00
8286;BME280;4181;43.416;24.598;2023-03-21T02:03:10;99897.53;;;13.04;100.00
8286;BME280;4181;43.416;24.598;2023-03-21T02:05:49;99897.28;;;13.16;100.00
8286;BME280;4181;43.416;24.598;2023-03-21T02:08:16;99873.44;;;13.01;100.00
8286;BME280;4181;43.416;24.598;2023-03-21T02:10:44;99891.25;;;13.14;100.00
8286;BME280;4181;43.416;24.598;2023-03-21T02:13:12;99889.84;;;12.86;100.00
8286;BME280;4181;43.416;24.598;2023-03-21T02:15:48;99872.28;;;12.82;100.00
8286;BME280;4181;43.416;24.598;2023-03-21T02:21:27;99910.53;;;12.47;100.00
8286;BME280;4181;43.416;24.598;2023-03-21T02:27:16;99902.34;;;12.52;100.00
8286;BME280;4181;43.416;24.598;2023-03-21T02:30:37;99899.13;;;12.65;100.00
8286;BME280;4181;43.416;24.598;2023-03-21T02:32:56;99899.66;;;12.72;100.00
8286;BME280;4181;43.416;24.598;2023-03-21T02:37:56;99898.84;;;12.61;100.00
8286;BME280;4181;43.416;24.598;2023-03-21T02:40:38;99891.44;;;12.67;100.00
8286;BME280;4181;43.416;24.598;2023-03-21T02:46:04;99901.16;;;12.23;100.00
8286;BME280;4181;43.416;24.598;2023-03-21T02:48:45;99908.31;;;12.34;100.00
8286;BME280;4181;43.416;24.598;2023-03-21T02:51:15;99907.78;;;12.47;100.00
8286;BME280;4181;43.416;24.598;2023-03-21T02:53:44;99864.00;;;12.37;100.00
8286;BME280;4181;43.416;24.598;2023-03-21T02:56:11;99893.34;;;12.56;100.00
8286;BME280;4181;43.416;24.598;2023-03-21T02:58:38;99861.44;;;12.10;100.00
8286;BME280;4181;43.416;24.598;2023-03-21T03:01:05;99890.25;;;12.33;100.00
8286;BME280;4181;43.416;24.598;2023-03-21T03:03:34;99893.56;;;12.35;100.00
8286;BME280;4181;43.416;24.598;2023-03-21T03:06:08;99860.16;;;12.33;100.00
8286;BME280;4181;43.416;24.598;2023-03-21T03:11:31;99880.41;;;12.37;100.00
8286;BME280;4181;43.416;24.598;2023-03-21T03:16:58;99901.31;;;12.68;100.00
8286;BME280;4181;43.416;24.598;2023-03-21T03:19:30;99882.41;;;12.56;100.00
8286;BME280;4181;43.416;24.598;2023-03-21T03:22:00;99898.28;;;12.69;100.00
8286;BME280;4181;43.416;24.598;2023-03-21T03:24:51;99909.53;;;12.78;100.00
8286;BME280;4181;43.416;24.598;2023-03-21T03:27:26;99896.66;;;12.89;100.00
8286;BME280;4181;43.416;24.598;2023-03-21T03:29:56;99884.06;;;12.83;100.00
8286;BME280;4181;43.416;24.598;2023-03-21T03:32:28;99888.72;;;12.87;100.00
8286;BME280;4181;43.416;24.598;2023-03-21T03:34:56;99884.34;;;12.81;100.00
8286;BME280;4181;43.416;24.598;2023-03-21T03:37:26;99895.81;;;12.63;100.00
8286;BME280;4181;43.416;24.598;2023-03-21T03:40:24;99893.63;;;12.65;100.00
8286;BME280;4181;43.416;24.598;2023-03-21T03:42:59;99886.50;;;12.59;100.00
8286;BME280;4181;43.416;24.598;2023-03-21T03:45:33;99901.88;;;12.80;100.00
8286;BME280;4181;43.416;24.598;2023-03-21T03:48:29;99882.72;;;12.85;100.00
8286;BME280;4181;43.416;24.598;2023-03-21T03:51:00;99906.25;;;12.81;100.00
8286;BME280;4181;43.416;24.598;2023-03-21T03:55:58;99878.56;;;12.62;100.00
8286;BME280;4181;43.416;24.598;2023-03-21T03:58:24;99894.75;;;12.74;100.00
8286;BME280;4181;43.416;24.598;2023-03-21T04:00:52;99863.75;;;12.53;100.00
8286;BME280;4181;43.416;24.598;2023-03-21T04:03:18;99872.00;;;12.68;100.00
8286;BME280;4181;43.416;24.598;2023-03-21T04:05:45;99893.41;;;12.82;100.00
8286;BME280;4181;43.416;24.598;2023-03-21T04:08:15;99879.97;;;12.90;100.00
8286;BME280;4181;43.416;24.598;2023-03-21T04:10:42;99896.41;;;12.95;100.00
8286;BME280;4181;43.416;24.598;2023-03-21T04:13:08;99887.09;;;12.86;100.00
8286;BME280;4181;43.416;24.598;2023-03-21T04:15:34;99882.72;;;12.85;100.00
8286;BME280;4181;43.416;24.598;2023-03-21T04:18:00;99880.00;;;12.85;100.00
8286;BME280;4181;43.416;24.598;2023-03-21T04:20:26;99870.59;;;12.51;100.00
8286;BME280;4181;43.416;24.598;2023-03-21T04:22:52;99882.38;;;12.51;100.00
8286;BME280;4181;43.416;24.598;2023-03-21T04:25:18;99877.16;;;12.45;100.00
8286;BME280;4181;43.416;24.598;2023-03-21T04:27:44;99879.63;;;12.41;100.00
8286;BME280;4181;43.416;24.598;2023-03-21T04:30:11;99877.97;;;12.40;100.00
8286;BME280;4181;43.416;24.598;2023-03-21T04:32:37;99868.94;;;12.35;100.00
8286;BME280;4181;43.416;24.598;2023-03-21T04:35:08;99874.66;;;12.33;100.00
8286;BME280;4181;43.416;24.598;2023-03-21T04:37:34;99875.78;;;12.37;100.00
8286;BME280;4181;43.416;24.598;2023-03-21T04:40:01;99890.50;;;12.26;100.00
8286;BME280;4181;43.416;24.598;2023-03-21T04:42:31;99869.38;;;12.12;100.00
8286;BME280;4181;43.416;24.598;2023-03-21T04:44:56;99890.75;;;12.20;100.00
8286;BME280;4181;43.416;24.598;2023-03-21T04:47:22;99852.91;;;11.97;100.00
8286;BME280;4181;43.416;24.598;2023-03-21T04:49:47;99894.88;;;12.22;100.00
8286;BME280;4181;43.416;24.598;2023-03-21T04:52:13;99905.25;;;12.25;100.00
8286;BME280;4181;43.416;24.598;2023-03-21T04:54:39;99916.47;;;12.24;100.00
8286;BME280;4181;43.416;24.598;2023-03-21T04:57:05;99918.66;;;12.27;100.00
8286;BME280;4181;43.416;24.598;2023-03-21T04:59:31;99926.03;;;12.16;100.00
8286;BME280;4181;43.416;24.598;2023-03-21T05:01:56;99911.78;;;12.09;100.00
8286;BME280;4181;43.416;24.598;2023-03-21T05:04:23;99916.44;;;12.14;100.00
8286;BME280;4181;43.416;24.598;2023-03-21T05:06:48;99939.22;;;12.29;100.00
8286;BME280;4181;43.416;24.598;2023-03-21T05:09:14;99945.50;;;12.30;100.00
8286;BME280;4181;43.416;24.598;2023-03-21T05:11:39;99940.56;;;12.27;100.00
8286;BME280;4181;43.416;24.598;2023-03-21T05:14:10;99912.63;;;12.15;100.00
8286;BME280;4181;43.416;24.598;2023-03-21T05:16:38;99933.44;;;12.21;100.00
8286;BME280;4181;43.416;24.598;2023-03-21T05:19:10;99922.16;;;12.12;100.00
8286;BME280;4181;43.416;24.598;2023-03-21T05:21:38;99941.03;;;12.14;100.00
8286;BME280;4181;43.416;24.598;2023-03-21T05:24:13;99921.13;;;12.28;100.00
8286;BME280;4181;43.416;24.598;2023-03-21T05:26:39;99913.25;;;12.42;100.00
8286;BME280;4181;43.416;24.598;2023-03-21T05:29:06;99934.94;;;12.63;100.00
8286;BME280;4181;43.416;24.598;2023-03-21T05:31:32;99924.97;;;12.27;100.00
8286;BME280;4181;43.416;24.598;2023-03-21T05:33:58;99941.81;;;12.66;100.00
8286;BME280;4181;43.416;24.598;2023-03-21T05:36:23;99918.31;;;12.80;100.00
8286;BME280;4181;43.416;24.598;2023-03-21T05:38:49;99916.69;;;12.99;100.00
8286;BME280;4181;43.416;24.598;2023-03-21T05:41:16;99920.56;;;13.18;100.00
8286;BME280;4181;43.416;24.598;2023-03-21T05:43:41;99937.00;;;13.18;100.00
8286;BME280;4181;43.416;24.598;2023-03-21T05:46:07;99929.31;;;13.40;100.00
8286;BME280;4181;43.416;24.598;2023-03-21T05:48:34;99901.38;;;13.53;100.00
8286;BME280;4181;43.416;24.598;2023-03-21T05:51:00;99899.97;;;13.71;100.00
8286;BME280;4181;43.416;24.598;2023-03-21T05:53:26;99896.34;;;13.90;100.00
8286;BME280;4181;43.416;24.598;2023-03-21T05:55:51;99904.53;;;14.06;100.00
8286;BME280;4181;43.416;24.598;2023-03-21T05:58:17;99916.28;;;14.21;100.00
8286;BME280;4181;43.416;24.598;2023-03-21T06:00:42;99912.66;;;14.41;100.00
8286;BME280;4181;43.416;24.598;2023-03-21T06:03:08;99900.50;;;14.57;100.00
8286;BME280;4181;43.416;24.598;2023-03-21T06:05:33;99884.75;;;14.72;100.00
8286;BME280;4181;43.416;24.598;2023-03-21T06:07:59;99895.88;;;14.91;100.00
8286;BME280;4181;43.416;24.598;2023-03-21T06:10:25;99866.00;;;14.84;100.00
8286;BME280;4181;43.416;24.598;2023-03-21T06:12:50;99891.19;;;14.96;100.00
8286;BME280;4181;43.416;24.598;2023-03-21T06:15:16;99882.63;;;15.03;100.00
8286;BME280;4181;43.416;24.598;2023-03-21T06:17:41;99891.91;;;15.12;100.00
8286;BME280;4181;43.416;24.598;2023-03-21T06:20:08;99879.66;;;15.28;100.00
8286;BME280;4181;43.416;24.598;2023-03-21T06:22:36;99859.47;;;15.43;100.00
8286;BME280;4181;43.416;24.598;2023-03-21T06:25:03;99874.75;;;15.59;100.00
8286;BME280;4181;43.416;24.598;2023-03-21T06:27:29;99835.59;;;15.38;100.00
8286;BME280;4181;43.416;24.598;2023-03-21T06:29:54;99878.91;;;15.80;100.00
8286;BME280;4181;43.416;24.598;2023-03-21T06:32:22;99862.09;;;15.81;100.00
8286;BME280;4181;43.416;24.598;2023-03-21T06:34:47;99850.03;;;15.77;100.00
8286;BME280;4181;43.416;24.598;2023-03-21T06:37:13;99861.63;;;15.98;100.00
8286;BME280;4181;43.416;24.598;2023-03-21T06:39:39;99868.38;;;16.10;100.00
8286;BME280;4181;43.416;24.598;2023-03-21T06:42:05;99841.47;;;16.26;100.00
8286;BME280;4181;43.416;24.598;2023-03-21T06:44:30;99839.00;;;16.67;100.00
8286;BME280;4181;43.416;24.598;2023-03-21T06:46:56;99848.91;;;17.18;100.00
8286;BME280;4181;43.416;24.598;2023-03-21T06:49:21;99839.03;;;17.17;100.00
8286;BME280;4181;43.416;24.598;2023-03-21T06:51:46;99838.16;;;17.35;100.00
8286;BME280;4181;43.416;24.598;2023-03-21T06:54:12;99828.66;;;17.41;100.00
8286;BME280;4181;43.416;24.598;2023-03-21T06:56:39;99810.34;;;17.32;100.00
8286;BME280;4181;43.416;24.598;2023-03-21T06:59:05;99833.50;;;17.49;100.00
8286;BME280;4181;43.416;24.598;2023-03-21T07:01:30;99844.47;;;17.36;100.00
8286;BME280;4181;43.416;24.598;2023-03-21T07:03:56;99842.94;;;17.30;100.00
8286;BME280;4181;43.416;24.598;2023-03-21T07:06:25;99807.91;;;17.30;100.00
8286;BME280;4181;43.416;24.598;2023-03-21T07:08:52;99819.19;;;17.47;100.00
8286;BME280;4181;43.416;24.598;2023-03-21T07:11:19;99799.19;;;17.55;100.00
8286;BME280;4181;43.416;24.598;2023-03-21T07:13:44;99811.53;;;17.58;100.00
8286;BME280;4181;43.416;24.598;2023-03-21T07:16:10;99821.06;;;17.93;100.00
8286;BME280;4181;43.416;24.598;2023-03-21T07:18:36;99813.38;;;18.30;100.00
8286;BME280;4181;43.416;24.598;2023-03-21T07:21:02;99809.41;;;18.72;100.00
8286;BME280;4181;43.416;24.598;2023-03-21T07:23:28;99802.47;;;18.83;100.00
8286;BME280;4181;43.416;24.598;2023-03-21T07:25:54;99799.63;;;18.52;100.00
8286;BME280;4181;43.416;24.598;2023-03-21T07:28:20;99801.59;;;18.25;100.00
8286;BME280;4181;43.416;24.598;2023-03-21T07:30:54;99818.91;;;18.03;100.00
8286;BME280;4181;43.416;24.598;2023-03-21T07:33:20;99838.34;;;17.98;100.00
8286;BME280;4181;43.416;24.598;2023-03-21T07:35:52;99835.16;;;17.91;100.00
8286;BME280;4181;43.416;24.598;2023-03-21T07:38:18;99850.50;;;17.84;100.00
8286;BME280;4181;43.416;24.598;2023-03-21T07:40:45;99858.59;;;17.80;100.00
8286;BME280;4181;43.416;24.598;2023-03-21T07:43:12;99842.84;;;17.67;100.00
8286;BME280;4181;43.416;24.598;2023-03-21T07:45:38;99857.84;;;17.75;100.00
8286;BME280;4181;43.416;24.598;2023-03-21T07:48:03;99848.78;;;17.74;100.00
8286;BME280;4181;43.416;24.598;2023-03-21T07:50:29;99854.91;;;17.85;100.00
8286;BME280;4181;43.416;24.598;2023-03-21T07:52:55;99842.75;;;17.86;100.00
8286;BME280;4181;43.416;24.598;2023-03-21T07:55:20;99858.28;;;17.82;100.00
8286;BME280;4181;43.416;24.598;2023-03-21T07:57:48;99861.84;;;17.82;100.00
8286;BME280;4181;43.416;24.598;2023-03-21T08:00:14;99858.97;;;17.74;100.00
8286;BME280;4181;43.416;24.598;2023-03-21T08:02:50;99857.06;;;17.74;100.00
8286;BME280;4181;43.416;24.598;2023-03-21T08:05:23;99858.38;;;17.90;100.00
8286;BME280;4181;43.416;24.598;2023-03-21T08:07:49;99866.03;;;17.93;100.00
8286;BME280;4181;43.416;24.598;2023-03-21T08:10:16;99872.19;;;17.90;100.00
8286;BME280;4181;43.416;24.598;2023-03-21T08:12:42;99873.22;;;17.81;100.00
8286;BME280;4181;43.416;24.598;2023-03-21T08:15:08;99860.91;;;17.73;100.00
8286;BME280;4181;43.416;24.598;2023-03-21T08:17:33;99866.97;;;17.75;100.00
8286;BME280;4181;43.416;24.598;2023-03-21T08:20:03;99874.00;;;17.81;100.00
8286;BME280;4181;43.416;24.598;2023-03-21T08:22:32;99872.69;;;17.79;100.00
8286;BME280;4181;43.416;24.598;2023-03-21T08:24:57;99879.94;;;17.88;100.00
8286;BME280;4181;43.416;24.598;2023-03-21T08:27:24;99891.28;;;17.87;100.00
8286;BME280;4181;43.416;24.598;2023-03-21T08:29:50;99881.78;;;17.79;100.00
8286;BME280;4181;43.416;24.598;2023-03-21T08:32:17;99844.75;;;17.53;100.00
8286;BME280;4181;43.416;24.598;2023-03-21T08:34:43;99876.47;;;17.69;100.00
8286;BME280;4181;43.416;24.598;2023-03-21T08:37:08;99857.63;;;17.57;100.00
8286;BME280;4181;43.416;24.598;2023-03-21T08:39:34;99850.25;;;17.53;100.00
8286;BME280;4181;43.416;24.598;2023-03-21T08:42:00;99841.22;;;17.34;100.00
8286;BME280;4181;43.416;24.598;2023-03-21T08:44:25;99875.63;;;17.68;100.00
8286;BME280;4181;43.416;24.598;2023-03-21T08:46:51;99855.34;;;17.46;100.00
8286;BME280;4181;43.416;24.598;2023-03-21T08:49:16;99844.00;;;17.47;100.00
8286;BME280;4181;43.416;24.598;2023-03-21T08:51:44;99862.34;;;17.71;100.00
8286;BME280;4181;43.416;24.598;2023-03-21T08:54:20;99843.13;;;17.65;100.00
8286;BME280;4181;43.416;24.598;2023-03-21T08:56:46;99883.03;;;18.00;100.00
8286;BME280;4181;43.416;24.598;2023-03-21T08:59:12;99864.94;;;17.94;100.00
8286;BME280;4181;43.416;24.598;2023-03-21T09:01:37;99840.47;;;17.88;100.00
8286;BME280;4181;43.416;24.598;2023-03-21T09:04:03;99867.69;;;18.08;100.00
8286;BME280;4181;43.416;24.598;2023-03-21T09:06:32;99877.31;;;18.24;100.00
8286;BME280;4181;43.416;24.598;2023-03-21T09:08:58;99844.78;;;18.07;100.00
8286;BME280;4181;43.416;24.598;2023-03-21T09:11:24;99829.84;;;17.95;100.00
8286;BME280;4181;43.416;24.598;2023-03-21T09:13:49;99861.34;;;18.21;100.00
8286;BME280;4181;43.416;24.598;2023-03-21T09:16:15;99848.03;;;18.09;100.00
8286;BME280;4181;43.416;24.598;2023-03-21T09:18:40;99823.81;;;17.93;100.00
8286;BME280;4181;43.416;24.598;2023-03-21T09:21:14;99837.94;;;18.18;100.00
8286;BME280;4181;43.416;24.598;2023-03-21T09:23:41;99816.25;;;18.12;100.00
8286;BME280;4181;43.416;24.598;2023-03-21T09:26:07;99808.38;;;18.05;100.00
8286;BME280;4181;43.416;24.598;2023-03-21T09:28:34;99826.78;;;18.23;100.00
8286;BME280;4181;43.416;24.598;2023-03-21T09:31:01;99815.94;;;18.00;100.00
8286;BME280;4181;43.416;24.598;2023-03-21T09:33:28;99812.88;;;18.01;100.00
8286;BME280;4181;43.416;24.598;2023-03-21T09:35:54;99834.31;;;18.31;100.00
8286;BME280;4181;43.416;24.598;2023-03-21T09:38:20;99790.66;;;18.33;100.00
8286;BME280;4181;43.416;24.598;2023-03-21T09:43:30;99813.66;;;18.78;100.00
8286;BME280;4181;43.416;24.598;2023-03-21T09:49:22;99807.94;;;18.74;100.00
8286;BME280;4181;43.416;24.598;2023-03-21T09:51:51;99801.97;;;18.81;100.00
8286;BME280;4181;43.416;24.598;2023-03-21T09:54:24;99790.91;;;18.81;100.00
8286;BME280;4181;43.416;24.598;2023-03-21T09:56:54;99781.44;;;18.73;100.00
8286;BME280;4181;43.416;24.598;2023-03-21T09:59:28;99782.69;;;18.89;100.00
8286;BME280;4181;43.416;24.598;2023-03-21T10:01:57;99795.94;;;19.01;100.00
8286;BME280;4181;43.416;24.598;2023-03-21T10:04:24;99759.66;;;18.94;100.00
8286;BME280;4181;43.416;24.598;2023-03-21T10:07:00;99770.78;;;19.03;100.00
8286;BME280;4181;43.416;24.598;2023-03-21T10:09:27;99769.63;;;19.04;100.00
8286;BME280;4181;43.416;24.598;2023-03-21T10:11:56;99795.75;;;19.20;100.00
8286;BME280;4181;43.416;24.598;2023-03-21T10:14:36;99802.06;;;19.34;100.00
8286;BME280;4181;43.416;24.598;2023-03-21T10:19:38;99819.66;;;19.68;100.00
8286;BME280;4181;43.416;24.598;2023-03-21T10:22:03;99796.22;;;19.66;100.00
8286;BME280;4181;43.416;24.598;2023-03-21T10:24:31;99805.56;;;19.87;100.00
8286;BME280;4181;43.416;24.598;2023-03-21T10:26:57;99775.72;;;19.75;100.00
8286;BME280;4181;43.416;24.598;2023-03-21T10:29:27;99788.94;;;19.87;100.00
8286;BME280;4181;43.416;24.598;2023-03-21T10:31:55;99764.81;;;19.79;100.00
8286;BME280;4181;43.416;24.598;2023-03-21T10:34:40;99753.25;;;19.77;100.00
8286;BME280;4181;43.416;24.598;2023-03-21T10:37:07;99748.22;;;19.79;100.00
8286;BME280;4181;43.416;24.598;2023-03-21T10:39:38;99745.28;;;19.84;100.00
8286;BME280;4181;43.416;24.598;2023-03-21T10:42:05;99743.66;;;19.83;100.00
8286;BME280;4181;43.416;24.598;2023-03-21T10:44:33;99779.91;;;20.12;100.00
8286;BME280;4181;43.416;24.598;2023-03-21T10:47:08;99766.88;;;20.12;100.00
8286;BME280;4181;43.416;24.598;2023-03-21T10:49:37;99731.31;;;19.89;100.00
8286;BME280;4181;43.416;24.598;2023-03-21T10:52:16;99751.56;;;20.15;100.00
8286;BME280;4181;43.416;24.598;2023-03-21T10:54:42;99740.84;;;20.22;100.00
8286;BME280;4181;43.416;24.598;2023-03-21T10:57:11;99757.16;;;20.41;100.00
8286;BME280;4181;43.416;24.598;2023-03-21T10:59:43;99718.69;;;20.22;100.00
8286;BME280;4181;43.416;24.598;2023-03-21T11:02:24;99711.19;;;20.31;100.00
8286;BME280;4181;43.416;24.598;2023-03-21T11:04:52;99722.75;;;20.50;100.00
8286;BME280;4181;43.416;24.598;2023-03-21T11:07:18;99713.16;;;20.56;100.00
8286;BME280;4181;43.416;24.598;2023-03-21T11:09:52;99735.13;;;20.70;100.00
8286;BME280;4181;43.416;24.598;2023-03-21T11:12:35;99742.31;;;20.79;100.00
8286;BME280;4181;43.416;24.598;2023-03-21T11:15:39;99745.72;;;20.76;100.00
8286;BME280;4181;43.416;24.598;2023-03-21T11:18:21;99708.72;;;20.72;100.00
8286;BME280;4181;43.416;24.598;2023-03-21T11:21:01;99710.81;;;21.01;100.00
8286;BME280;4181;43.416;24.598;2023-03-21T11:23:33;99705.72;;;21.11;100.00
8286;BME280;4181;43.416;24.598;2023-03-21T11:26:01;99697.03;;;21.21;100.00
8286;BME280;4181;43.416;24.598;2023-03-21T11:28:53;99691.31;;;21.26;100.00
8286;BME280;4181;43.416;24.598;2023-03-21T11:31:19;99678.47;;;21.13;100.00
8286;BME280;4181;43.416;24.598;2023-03-21T11:34:05;99694.06;;;21.26;100.00
8286;BME280;4181;43.416;24.598;2023-03-21T11:36:33;99692.34;;;21.05;100.00
8286;BME280;4181;43.416;24.598;2023-03-21T11:41:57;99697.09;;;21.04;100.00
8286;BME280;4181;43.416;24.598;2023-03-21T11:46:54;99656.03;;;20.72;100.00
8286;BME280;4181;43.416;24.598;2023-03-21T11:49:21;99673.00;;;20.79;100.00
8286;BME280;4181;43.416;24.598;2023-03-21T11:52:05;99687.81;;;21.00;100.00
8286;BME280;4181;43.416;24.598;2023-03-21T12:00:23;99671.16;;;21.00;100.00
8286;BME280;4181;43.416;24.598;2023-03-21T12:03:10;99630.88;;;20.94;100.00
8286;BME280;4181;43.416;24.598;2023-03-21T12:05:57;99640.66;;;21.00;100.00
8286;BME280;4181;43.416;24.598;2023-03-21T12:14:14;99625.69;;;20.84;100.00
8286;BME280;4181;43.416;24.598;2023-03-21T12:19:37;99674.97;;;21.25;100.00
8286;BME280;4181;43.416;24.598;2023-03-21T12:25:24;99675.56;;;21.01;100.00
8286;BME280;4181;43.416;24.598;2023-03-21T12:31:02;99640.66;;;21.00;100.00
8286;BME280;4181;43.416;24.598;2023-03-21T12:34:10;99618.63;;;21.04;100.00
8286;BME280;4181;43.416;24.598;2023-03-21T12:37:11;99655.19;;;21.35;100.00
8286;BME280;4181;43.416;24.598;2023-03-21T12:39:42;99620.91;;;21.40;100.00
8286;BME280;4181;43.416;24.598;2023-03-21T12:42:42;99607.78;;;21.49;100.00
8286;BME280;4181;43.416;24.598;2023-03-21T12:45:16;99636.34;;;21.78;100.00
8286;BME280;4181;43.416;24.598;2023-03-21T12:47:48;99605.22;;;21.64;100.00
8286;BME280;4181;43.416;24.598;2023-03-21T12:50:30;99602.41;;;21.73;100.00
8286;BME280;4181;43.416;24.598;2023-03-21T12:53:17;99610.56;;;21.78;100.00
8286;BME280;4181;43.416;24.598;2023-03-21T12:55:50;99592.63;;;21.67;100.00
8286;BME280;4181;43.416;24.598;2023-03-21T12:58:19;99593.09;;;21.69;100.00
8286;BME280;4181;43.416;24.598;2023-03-21T13:00:59;99586.72;;;21.68;100.00
8286;BME280;4181;43.416;24.598;2023-03-21T13:03:32;99578.75;;;21.67;100.00
8286;BME280;4181;43.416;24.598;2023-03-21T13:06:04;99581.50;;;21.67;100.00
8286;BME280;4181;43.416;24.598;2023-03-21T13:10:56;99597.19;;;21.92;100.00
8286;BME280;4181;43.416;24.598;2023-03-21T13:16:36;99620.31;;;21.84;100.00
8286;BME280;4181;43.416;24.598;2023-03-21T13:21:48;99592.47;;;21.63;100.00
8286;BME280;4181;43.416;24.598;2023-03-21T13:24:41;99586.28;;;21.66;100.00
8286;BME280;4181;43.416;24.598;2023-03-21T13:27:34;99593.59;;;21.71;100.00
8286;BME280;4181;43.416;24.598;2023-03-21T13:30:06;99587.41;;;21.65;100.00
8286;BME280;4181;43.416;24.598;2023-03-21T13:32:43;99590.31;;;21.69;100.00
8286;BME280;4181;43.416;24.598;2023-03-21T13:35:20;99604.66;;;21.79;100.00
8286;BME280;4181;43.416;24.598;2023-03-21T13:38:04;99606.31;;;21.51;100.00
8286;BME280;4181;43.416;24.598;2023-03-21T13:40:58;99574.38;;;21.36;100.00
8286;BME280;4181;43.416;24.598;2023-03-21T13:46:50;99578.00;;;21.28;100.00
8286;BME280;4181;43.416;24.598;2023-03-21T13:49:37;99595.53;;;21.20;100.00
8286;BME280;4181;43.416;24.598;2023-03-21T13:52:26;99587.88;;;21.17;100.00
8286;BME280;4181;43.416;24.598;2023-03-21T13:54:55;99592.59;;;21.17;100.00
8286;BME280;4181;43.416;24.598;2023-03-21T14:03:05;99574.75;;;20.97;100.00
8286;BME280;4181;43.416;24.598;2023-03-21T14:05:32;99569.03;;;20.94;100.00
8286;BME280;4181;43.416;24.598;2023-03-21T14:08:07;99583.38;;;20.96;100.00
8286;BME280;4181;43.416;24.598;2023-03-21T14:10:38;99574.75;;;20.89;100.00
8286;BME280;4181;43.416;24.598;2023-03-21T14:13:08;99600.22;;;20.82;100.00
8286;BME280;4181;43.416;24.598;2023-03-21T14:15:39;99592.84;;;20.86;100.00
8286;BME280;4181;43.416;24.598;2023-03-21T14:18:06;99573.59;;;20.90;100.00
8286;BME280;4181;43.416;24.598;2023-03-21T14:20:36;99574.13;;;20.83;100.00
8286;BME280;4181;43.416;24.598;2023-03-21T14:23:07;99582.78;;;20.82;100.00
8286;BME280;4181;43.416;24.598;2023-03-21T14:25:36;99589.44;;;20.89;100.00
8286;BME280;4181;43.416;24.598;2023-03-21T14:28:07;99581.94;;;20.81;100.00